Guernsey, IA

4:27 PM CDT on October 20, 2014 (GMT -0500)
TCA Brooklyn | Change Station
CLOSE
Current Station
Personal Weather Station
Location: Brooklyn, IA
Elevation: 951 ft
Nearby Weather Stations

Elev 951 ft 41.70 °N, 92.45 °W | Updated 7 minutes ago

Clear
Clear
70.3 °F
Feels Like 77 °F
N
3.0
Wind Variable Wind from NNE
Gusts 17.0 mph

Today
High -- | Low -- °F
--% Chance of Precip.
Yesterday
High -- | Low -- °F
Precip. -- in
7:27 AM 6:20 PM
Waning Crescent, 9% visible
Pressure 29.99 in
Visibility 10.0 miles
Clouds Clear
Heat Index 77 °F
Dew Point 43 °F
Humidity 38%
Rainfall 0.00 in
Snow Depth Not available.
UV 2 out of 12
Pollen 1.80 out of 12
Air Quality Not available.
Flu Activity Sporadic
METAR KGGI 202115Z AUTO 30011KT 10SM CLR 21/04 A2999 RMK AO2 T02060040

More Conditions Fewer Conditions

Pressure 29.99 in
Visibility 10.0 miles
Clouds Clear
Heat Index 77 °F
Dew Point 43 °F
Humidity 38%
Rainfall 0.00 in
Snow Depth Not available.
UV 2 out of 12
Pollen 1.80 out of 12
Air Quality Not available.
Flu Activity Sporadic
METAR KGGI 202115Z AUTO 30011KT 10SM CLR 21/04 A2999 RMK AO2 T02060040

More Conditions Fewer Conditions

10-Day Weather Forecast

Almanac

Astronomy

Oct. 20, 2014 Rise Set
Actual Time 7:27 AM CDT 6:20 PM CDT
Civil Twilight 6:58 AM CDT 6:48 PM CDT
Nautical Twilight 6:26 AM CDT 7:20 PM CDT
Astronomical Twilight 5:54 AM CDT 7:52 PM CDT
Moon 4:13 AM CDT 4:45 PM CDT
Length of Visible Light 11h 49m
Length of Day
10h 53m
Waning Crescent, 9% of the Moon is Illuminated
Today
Waning Crescent
Oct 23
New
Oct 30
First Quarter
Nov 6
Full
Nov 14
Last Quarter

Today's Extremes

State Highs State Lows

Community

WunderPhotos

Upload Photos

1,763,522 photos uploaded!

WunderBlogs® & News

Nearby

Snow Depth

Station Depth Elevation
No new snow has been reported.

Earthquake Activity

City Distance Mag. Time & Date
No recent earthquake activity has been reported nearby.
Minimum magnitude displayed is 2.5.

Coastal Water Temperatures

Place Temperature
No Stations Reporting

Nearby Weather Stations